createdAt,value
2019-05-16T00:01:25.550Z,99.90
2019-05-16T00:03:57.872Z,99.90
2019-05-16T00:06:28.429Z,99.90
2019-05-16T00:08:58.629Z,99.90
2019-05-16T00:11:28.809Z,99.90
2019-05-16T00:13:59.430Z,99.90
2019-05-16T00:16:30.343Z,99.90
2019-05-16T00:19:00.174Z,99.90
2019-05-16T00:21:30.230Z,99.90
2019-05-16T00:24:00.223Z,99.90
2019-05-16T00:26:30.225Z,99.90
2019-05-16T00:29:00.204Z,99.90
2019-05-16T00:31:30.091Z,99.90
2019-05-16T00:34:00.321Z,99.90
2019-05-16T00:36:30.114Z,99.90
2019-05-16T00:39:00.078Z,99.90
2019-05-16T00:41:30.037Z,99.90
2019-05-16T00:44:00.299Z,99.90
2019-05-16T00:46:30.106Z,99.90
2019-05-16T00:49:00.012Z,99.90
2019-05-16T00:51:30.705Z,99.90
2019-05-16T00:54:00.620Z,99.90
2019-05-16T00:56:32.449Z,99.90
2019-05-16T00:59:03.117Z,99.90
2019-05-16T01:01:32.915Z,99.90
2019-05-16T01:04:02.747Z,99.90
2019-05-16T01:06:32.550Z,99.90
2019-05-16T01:09:02.352Z,99.90
2019-05-16T01:11:32.176Z,99.90
2019-05-16T01:14:01.978Z,99.90
2019-05-16T01:16:32.308Z,99.90
2019-05-16T01:19:02.562Z,99.90
2019-05-16T01:21:32.338Z,99.90
2019-05-16T01:24:02.136Z,99.90
2019-05-16T01:26:31.956Z,99.90
2019-05-16T01:29:01.743Z,99.90
2019-05-16T01:31:32.021Z,99.90
2019-05-16T01:34:01.856Z,99.90
2019-05-16T01:36:36.667Z,99.90
2019-05-16T01:39:05.074Z,99.90
2019-05-16T01:41:34.889Z,99.90
2019-05-16T01:44:04.722Z,99.90
2019-05-16T01:46:34.686Z,99.90
2019-05-16T01:49:04.514Z,99.90
2019-05-16T01:51:37.819Z,99.90
2019-05-16T01:54:08.669Z,99.90
2019-05-16T01:56:38.941Z,99.90
2019-05-16T01:59:09.324Z,99.90
2019-05-16T02:01:39.165Z,99.90
2019-05-16T02:04:12.245Z,99.90
2019-05-16T02:06:50.851Z,99.90
2019-05-16T02:09:12.925Z,99.90
2019-05-16T02:11:42.761Z,99.90
2019-05-16T02:14:12.537Z,99.90
2019-05-16T02:16:42.679Z,99.90
2019-05-16T02:19:12.505Z,99.90
2019-05-16T02:21:42.298Z,99.90
2019-05-16T02:24:13.052Z,99.90
2019-05-16T02:26:42.942Z,99.90
2019-05-16T02:29:13.683Z,99.90
2019-05-16T02:31:44.962Z,99.90
2019-05-16T02:34:15.042Z,99.90
2019-05-16T02:36:44.831Z,99.90
2019-05-16T02:39:14.670Z,99.90
2019-05-16T02:41:46.220Z,99.90
2019-05-16T02:44:16.533Z,99.90
2019-05-16T02:46:50.679Z,99.90
2019-05-16T02:49:21.646Z,99.90
2019-05-16T02:51:51.520Z,99.90
2019-05-16T02:54:22.467Z,99.90
2019-05-16T02:56:52.364Z,99.90
2019-05-16T02:59:22.251Z,99.90
2019-05-16T03:01:53.024Z,99.90
2019-05-16T03:04:22.843Z,99.90
2019-05-16T03:06:53.546Z,99.90
2019-05-16T03:09:23.351Z,99.90
2019-05-16T03:11:54.976Z,99.90
2019-05-16T03:14:26.145Z,99.90
2019-05-16T03:17:01.042Z,99.90
2019-05-16T03:19:32.593Z,99.90
2019-05-16T03:22:05.221Z,99.90
2019-05-16T03:24:35.463Z,99.90
2019-05-16T03:27:05.290Z,99.90
2019-05-16T03:29:35.077Z,99.90
2019-05-16T03:32:04.887Z,99.90
2019-05-16T03:34:35.053Z,99.90
2019-05-16T03:37:05.401Z,99.90
2019-05-16T03:39:36.381Z,99.90
2019-05-16T03:42:06.165Z,99.90
2019-05-16T03:44:36.008Z,99.90
2019-05-16T03:47:06.242Z,99.90
2019-05-16T03:49:36.052Z,99.90
2019-05-16T03:52:06.574Z,99.90
2019-05-16T03:54:36.616Z,99.90
2019-05-16T03:57:06.669Z,99.90
2019-05-16T03:59:36.485Z,99.90
2019-05-16T04:02:06.638Z,99.90
2019-05-16T04:04:36.654Z,99.90
2019-05-16T04:07:06.590Z,99.90
2019-05-16T04:09:36.413Z,99.90
2019-05-16T04:12:06.646Z,99.90
2019-05-16T04:14:36.436Z,99.90
2019-05-16T04:17:06.392Z,99.90
2019-05-16T04:19:36.396Z,99.90
2019-05-16T04:22:10.472Z,99.90
2019-05-16T04:24:43.045Z,99.90
2019-05-16T04:27:12.892Z,99.90
2019-05-16T04:29:44.147Z,99.90
2019-05-16T04:32:14.054Z,99.90
2019-05-16T04:34:43.842Z,99.90
2019-05-16T04:37:13.965Z,99.90
2019-05-16T04:39:44.200Z,99.90
2019-05-16T04:42:15.314Z,99.90
2019-05-16T04:44:46.109Z,99.90
2019-05-16T04:47:16.079Z,99.90
2019-05-16T04:49:46.059Z,99.90
2019-05-16T04:52:15.863Z,99.90
2019-05-16T04:54:45.863Z,99.90
2019-05-16T04:57:16.004Z,99.90
2019-05-16T04:59:45.840Z,99.90
2019-05-16T05:02:16.102Z,99.90
2019-05-16T05:04:45.907Z,99.90
2019-05-16T05:07:15.799Z,99.90
2019-05-16T05:09:45.835Z,99.90
2019-05-16T05:12:15.634Z,99.90
2019-05-16T05:14:45.831Z,99.90
2019-05-16T05:17:15.805Z,99.90
2019-05-16T05:19:45.585Z,99.90
2019-05-16T05:22:19.909Z,99.90
2019-05-16T05:24:50.888Z,99.90
2019-05-16T05:27:20.619Z,99.90
2019-05-16T05:29:50.760Z,99.90
2019-05-16T05:32:20.640Z,99.90
2019-05-16T05:34:50.518Z,99.90
2019-05-16T05:37:20.702Z,99.90
2019-05-16T05:39:50.596Z,99.90
2019-05-16T05:42:20.748Z,99.90
2019-05-16T05:44:50.900Z,99.90
2019-05-16T05:47:22.071Z,99.90
2019-05-16T05:49:51.854Z,99.90
2019-05-16T05:52:21.637Z,99.90
2019-05-16T05:54:52.414Z,99.90
2019-05-16T05:57:22.220Z,99.90
2019-05-16T05:59:53.094Z,99.90
2019-05-16T06:02:23.220Z,99.90
2019-05-16T06:04:54.062Z,99.90
2019-05-16T06:07:23.844Z,99.90
2019-05-16T06:09:56.616Z,99.90
2019-05-16T06:12:25.092Z,99.90
2019-05-16T06:14:55.974Z,99.90
2019-05-16T06:17:26.777Z,99.90
2019-05-16T06:19:56.573Z,99.90
2019-05-16T06:22:32.368Z,99.90
2019-05-16T06:25:02.331Z,99.90
2019-05-16T06:27:32.118Z,99.90
2019-05-16T06:30:02.499Z,99.90
2019-05-16T06:32:32.326Z,99.90
2019-05-16T06:35:03.079Z,99.90
2019-05-16T06:37:32.884Z,99.90
2019-05-16T06:40:02.704Z,99.90
2019-05-16T06:42:32.582Z,99.90
2019-05-16T06:45:02.941Z,99.90
2019-05-16T06:47:32.777Z,99.90
2019-05-16T06:50:02.693Z,99.90
2019-05-16T06:52:32.553Z,99.90
2019-05-16T06:55:02.444Z,99.90
2019-05-16T06:57:32.245Z,99.90
2019-05-16T07:00:02.746Z,99.90
2019-05-16T07:02:34.566Z,99.90
2019-05-16T07:05:06.196Z,99.90
2019-05-16T07:07:35.988Z,99.90
2019-05-16T07:10:06.639Z,99.90
2019-05-16T07:12:36.516Z,99.90
2019-05-16T07:15:12.306Z,99.90
2019-05-16T07:17:39.964Z,99.90
2019-05-16T07:20:10.724Z,99.90
2019-05-16T07:22:40.808Z,99.90
2019-05-16T07:25:11.495Z,99.90
2019-05-16T07:27:41.365Z,99.90
2019-05-16T07:30:12.740Z,99.90
2019-05-16T07:32:42.655Z,99.90
2019-05-16T07:35:13.170Z,99.90
2019-05-16T07:37:42.983Z,99.90
2019-05-16T07:40:20.085Z,99.90
2019-05-16T07:42:45.184Z,99.90
2019-05-16T07:45:15.244Z,99.90
2019-05-16T07:47:45.076Z,99.90
2019-05-16T07:50:15.876Z,99.90
2019-05-16T07:52:45.686Z,99.90
2019-05-16T07:55:16.935Z,99.90
2019-05-16T07:57:46.741Z,99.80
2019-05-16T08:00:17.706Z,99.90
2019-05-16T08:02:47.559Z,99.90
2019-05-16T08:05:17.481Z,99.80
2019-05-16T08:07:47.773Z,99.00
2019-05-16T08:10:33.913Z,98.10
2019-05-16T08:12:51.342Z,97.70
2019-05-16T08:15:23.083Z,97.60
2019-05-16T08:17:52.884Z,97.40
2019-05-16T08:20:22.719Z,97.10
2019-05-16T08:22:54.981Z,96.70
2019-05-16T08:25:24.990Z,96.90
2019-05-16T08:27:54.800Z,97.00
2019-05-16T08:30:24.927Z,97.40
2019-05-16T08:32:54.753Z,97.20
2019-05-16T08:35:24.678Z,97.10
2019-05-16T08:37:54.877Z,97.60
2019-05-16T08:40:24.809Z,97.20
2019-05-16T08:42:54.682Z,97.10
2019-05-16T08:45:24.798Z,97.00
2019-05-16T08:47:54.714Z,96.80
2019-05-16T08:50:25.162Z,96.30
2019-05-16T08:52:55.472Z,96.20
2019-05-16T08:55:25.306Z,96.30
2019-05-16T08:57:55.104Z,96.80
2019-05-16T09:00:26.411Z,96.30
2019-05-16T09:02:56.826Z,95.90
2019-05-16T09:05:26.721Z,95.50
2019-05-16T09:08:00.860Z,95.70
2019-05-16T09:10:55.778Z,96.00
2019-05-16T09:13:06.726Z,96.40
2019-05-16T09:15:38.971Z,95.00
2019-05-16T09:18:08.916Z,93.80
2019-05-16T09:20:42.687Z,93.60
2019-05-16T09:23:11.834Z,93.20
2019-05-16T09:25:42.404Z,94.50
2019-05-16T09:28:12.193Z,95.00
2019-05-16T09:30:42.124Z,93.90
2019-05-16T09:33:12.238Z,92.60
2019-05-16T09:35:42.107Z,93.00
2019-05-16T09:38:11.960Z,92.60
2019-05-16T09:40:42.895Z,91.70
2019-05-16T09:43:12.684Z,91.60
2019-05-16T09:45:42.558Z,91.30
2019-05-16T09:48:12.538Z,91.50
2019-05-16T09:50:42.353Z,92.50
2019-05-16T09:53:12.179Z,91.80
2019-05-16T09:55:42.583Z,91.50
2019-05-16T09:58:12.391Z,90.00
2019-05-16T10:00:42.322Z,89.40
2019-05-16T10:03:12.658Z,89.70
2019-05-16T10:05:42.509Z,89.60
2019-05-16T10:08:12.339Z,88.20
2019-05-16T10:10:42.616Z,84.60
2019-05-16T10:13:12.728Z,86.20
2019-05-16T10:15:42.932Z,83.80
2019-05-16T10:18:12.734Z,82.90
2019-05-16T10:20:42.521Z,81.40
2019-05-16T10:23:14.835Z,82.70
2019-05-16T10:25:47.934Z,79.20
2019-05-16T10:28:20.110Z,78.50
2019-05-16T10:30:50.322Z,75.40
2019-05-16T10:33:20.376Z,72.60
2019-05-16T10:35:50.594Z,68.90
2019-05-16T10:38:20.384Z,61.00
2019-05-16T10:40:50.196Z,56.70
2019-05-16T10:43:20.018Z,54.90
2019-05-16T10:45:50.179Z,51.90
2019-05-16T10:48:19.970Z,50.40
2019-05-16T10:50:49.829Z,47.10
2019-05-16T10:53:43.020Z,44.60
2019-05-16T10:55:51.258Z,42.30
2019-05-16T10:58:35.426Z,43.00
2019-05-16T11:01:22.264Z,45.30
2019-05-16T11:03:27.538Z,48.30
2019-05-16T11:06:05.424Z,49.50
2019-05-16T11:08:29.355Z,51.90
2019-05-16T11:10:59.974Z,50.90
2019-05-16T11:13:29.967Z,50.90
2019-05-16T11:15:59.900Z,50.80
2019-05-16T11:18:30.120Z,53.00
2019-05-16T11:20:59.958Z,52.80
2019-05-16T11:23:31.399Z,50.10
2019-05-16T11:26:02.504Z,48.10
2019-05-16T11:28:32.404Z,47.10
2019-05-16T11:31:03.994Z,45.10
2019-05-16T11:33:37.016Z,45.70
2019-05-16T11:36:08.194Z,46.10
2019-05-16T11:38:38.279Z,41.80
2019-05-16T11:41:08.100Z,40.30
2019-05-16T11:43:38.881Z,44.20
2019-05-16T11:46:09.695Z,49.00
2019-05-16T11:48:39.902Z,52.40
2019-05-16T11:51:09.674Z,51.30
2019-05-16T11:53:39.645Z,50.20
2019-05-16T11:56:09.699Z,50.60
2019-05-16T11:58:39.700Z,53.20
2019-05-16T12:01:09.556Z,54.50
2019-05-16T12:03:39.403Z,54.80
2019-05-16T12:06:11.171Z,48.60
2019-05-16T12:08:41.914Z,47.30
2019-05-16T12:11:11.764Z,44.00
2019-05-16T12:13:41.544Z,41.70
2019-05-16T12:16:15.174Z,41.90
2019-05-16T12:18:46.329Z,43.50
2019-05-16T12:21:17.219Z,45.40
2019-05-16T12:23:47.435Z,44.70
2019-05-16T12:26:17.719Z,42.20
2019-05-16T12:28:47.922Z,44.60
2019-05-16T12:31:18.374Z,44.50
2019-05-16T12:33:48.264Z,44.30
2019-05-16T12:36:18.075Z,42.20
2019-05-16T12:38:48.430Z,41.20
2019-05-16T12:41:19.095Z,42.20
2019-05-16T12:43:53.294Z,45.00
2019-05-16T12:46:20.295Z,46.70
2019-05-16T12:48:50.821Z,48.50
2019-05-16T12:51:21.450Z,47.90
2019-05-16T12:53:51.242Z,49.90
2019-05-16T12:56:21.094Z,49.50
2019-05-16T12:58:51.702Z,52.50
2019-05-16T13:01:21.984Z,53.40
2019-05-16T13:03:53.852Z,51.80
2019-05-16T13:06:23.654Z,52.90
2019-05-16T13:08:53.749Z,51.70
2019-05-16T13:11:23.795Z,53.90
2019-05-16T13:14:03.354Z,52.60
2019-05-16T13:16:28.070Z,52.40
2019-05-16T13:18:56.963Z,54.80
2019-05-16T13:21:27.529Z,56.00
2019-05-16T13:23:59.094Z,53.00
2019-05-16T13:26:29.742Z,52.20
2019-05-16T13:28:59.823Z,49.50
2019-05-16T13:31:29.637Z,47.50
2019-05-16T13:33:59.572Z,48.00
2019-05-16T13:36:29.563Z,48.10
2019-05-16T13:38:59.584Z,50.40
2019-05-16T13:41:29.412Z,51.20
2019-05-16T13:44:13.933Z,50.80
2019-05-16T13:46:31.314Z,50.20
2019-05-16T13:49:01.136Z,50.90
2019-05-16T13:51:30.933Z,50.10
2019-05-16T13:54:01.037Z,51.10
2019-05-16T13:56:30.875Z,50.10
2019-05-16T13:59:00.668Z,47.20
2019-05-16T14:01:30.473Z,48.80
2019-05-16T14:04:00.579Z,47.20
2019-05-16T14:06:30.502Z,47.80
2019-05-16T14:09:00.502Z,49.50
2019-05-16T14:11:30.417Z,48.10
2019-05-16T14:14:00.657Z,48.00
2019-05-16T14:16:30.474Z,48.80
2019-05-16T14:19:00.622Z,48.60
2019-05-16T14:21:30.518Z,48.10
2019-05-16T14:24:01.156Z,45.60
2019-05-16T14:26:30.979Z,44.60
2019-05-16T14:29:00.780Z,46.00
2019-05-16T14:31:30.555Z,43.90
2019-05-16T14:34:00.712Z,42.60
2019-05-16T14:36:30.610Z,42.00
2019-05-16T14:39:00.641Z,43.90
2019-05-16T14:41:30.560Z,42.00
2019-05-16T14:44:00.498Z,41.80
2019-05-16T14:46:30.515Z,42.60
2019-05-16T14:49:00.347Z,44.00
2019-05-16T14:51:32.009Z,42.70
2019-05-16T14:54:02.148Z,41.20
2019-05-16T14:56:31.957Z,41.80
2019-05-16T14:59:01.755Z,42.60
2019-05-16T15:01:31.587Z,44.10
2019-05-16T15:04:01.851Z,43.90
2019-05-16T15:06:31.639Z,45.10
2019-05-16T15:09:01.426Z,46.40
2019-05-16T15:11:31.290Z,46.40
2019-05-16T15:14:01.620Z,47.20
2019-05-16T15:16:31.566Z,47.20
2019-05-16T15:19:01.386Z,47.70
2019-05-16T15:21:31.552Z,47.30
2019-05-16T15:24:01.358Z,45.60
2019-05-16T15:26:33.063Z,46.90
2019-05-16T15:29:03.274Z,47.00
2019-05-16T15:31:36.337Z,47.70
2019-05-16T15:34:05.995Z,46.80
2019-05-16T15:36:37.279Z,47.30
2019-05-16T15:39:08.749Z,47.40
2019-05-16T15:41:38.605Z,47.80
2019-05-16T15:44:09.504Z,48.00
2019-05-16T15:46:40.898Z,46.80
2019-05-16T15:49:12.388Z,46.20
2019-05-16T15:51:42.990Z,47.50
2019-05-16T15:54:17.963Z,48.80
2019-05-16T15:56:50.149Z,48.20
2019-05-16T15:59:20.632Z,48.80
2019-05-16T16:01:50.428Z,49.80
2019-05-16T16:04:20.288Z,49.80
2019-05-16T16:06:50.085Z,49.30
2019-05-16T16:09:20.523Z,50.30
2019-05-16T16:11:50.432Z,50.70
2019-05-16T16:14:20.998Z,50.80
2019-05-16T16:16:50.791Z,51.60
2019-05-16T16:19:20.631Z,51.20
2019-05-16T16:21:50.442Z,52.40
2019-05-16T16:24:20.622Z,51.90
2019-05-16T16:26:50.910Z,52.20
2019-05-16T16:29:21.409Z,53.10
2019-05-16T16:31:51.202Z,53.30
2019-05-16T16:34:22.505Z,53.10
2019-05-16T16:36:52.284Z,52.60
2019-05-16T16:39:23.118Z,53.00
2019-05-16T16:41:52.943Z,52.00
2019-05-16T16:44:22.819Z,53.10
2019-05-16T16:46:53.450Z,52.50
2019-05-16T16:49:23.293Z,52.30
2019-05-16T16:51:53.055Z,52.50
2019-05-16T16:54:23.701Z,52.90
2019-05-16T16:56:53.522Z,53.20
2019-05-16T16:59:23.318Z,54.10
2019-05-16T17:01:53.545Z,53.80
2019-05-16T17:04:23.483Z,54.30
2019-05-16T17:06:53.307Z,54.10
2019-05-16T17:09:23.597Z,54.20
2019-05-16T17:11:53.417Z,54.40
2019-05-16T17:14:26.296Z,54.30
2019-05-16T17:16:57.524Z,54.40
2019-05-16T17:19:27.654Z,54.10
2019-05-16T17:22:12.905Z,55.20
2019-05-16T17:24:29.035Z,55.00
2019-05-16T17:26:58.863Z,55.60
2019-05-16T17:29:30.291Z,55.10
2019-05-16T17:32:07.102Z,54.60
2019-05-16T17:34:32.556Z,54.90
2019-05-16T17:37:02.342Z,54.90
2019-05-16T17:39:33.040Z,54.00
2019-05-16T17:42:02.864Z,54.10
2019-05-16T17:44:32.639Z,53.80
2019-05-16T17:47:02.971Z,52.90
2019-05-16T17:49:32.777Z,52.90
2019-05-16T17:52:02.651Z,53.10
2019-05-16T17:54:32.815Z,52.60
2019-05-16T17:57:02.638Z,53.30
2019-05-16T17:59:32.444Z,51.40
2019-05-16T18:02:03.484Z,51.80
2019-05-16T18:04:33.773Z,52.70
2019-05-16T18:07:03.576Z,52.40
2019-05-16T18:09:36.760Z,52.20
2019-05-16T18:12:07.043Z,52.20
2019-05-16T18:14:37.421Z,50.00
2019-05-16T18:17:07.783Z,49.40
2019-05-16T18:19:38.415Z,49.90
2019-05-16T18:22:08.214Z,50.20
2019-05-16T18:24:39.190Z,50.70
2019-05-16T18:27:09.007Z,51.30
2019-05-16T18:29:38.811Z,52.90
2019-05-16T18:32:08.964Z,53.70
2019-05-16T18:34:38.976Z,54.60
2019-05-16T18:37:08.758Z,54.20
2019-05-16T18:39:39.197Z,54.20
2019-05-16T18:42:09.031Z,54.70
2019-05-16T18:44:38.957Z,56.80
2019-05-16T18:47:11.486Z,55.40
2019-05-16T18:49:41.567Z,55.10
2019-05-16T18:52:11.375Z,54.90
2019-05-16T18:54:41.777Z,54.40
2019-05-16T18:57:13.078Z,53.30
2019-05-16T18:59:42.866Z,53.90
2019-05-16T19:02:13.919Z,53.40
2019-05-16T19:04:43.770Z,53.40
2019-05-16T19:07:13.540Z,54.50
2019-05-16T19:09:43.600Z,54.50
2019-05-16T19:12:13.506Z,54.90
2019-05-16T19:14:43.408Z,55.20
2019-05-16T19:17:22.047Z,55.60
2019-05-16T19:19:46.497Z,55.60
2019-05-16T19:22:17.163Z,56.20
2019-05-16T19:24:48.865Z,56.80
2019-05-16T19:27:18.698Z,57.00
2019-05-16T19:29:50.375Z,57.20
2019-05-16T19:32:21.287Z,57.30
2019-05-16T19:34:51.133Z,57.20
2019-05-16T19:37:21.313Z,57.80
2019-05-16T19:39:51.385Z,58.00
2019-05-16T19:42:21.222Z,58.70
2019-05-16T19:44:51.898Z,58.90
2019-05-16T19:47:34.048Z,59.70
2019-05-16T19:49:53.144Z,59.50
2019-05-16T19:52:22.933Z,59.70
2019-05-16T19:54:53.653Z,62.10
2019-05-16T19:57:23.477Z,63.20
2019-05-16T19:59:53.337Z,62.70
2019-05-16T20:02:24.025Z,63.30
2019-05-16T20:04:56.159Z,63.10
2019-05-16T20:07:26.490Z,62.50
2019-05-16T20:09:56.498Z,62.90
2019-05-16T20:12:26.816Z,63.20
2019-05-16T20:15:07.575Z,63.50
2019-05-16T20:17:29.654Z,64.20
2019-05-16T20:19:59.472Z,63.60
2019-05-16T20:22:31.235Z,65.40
2019-05-16T20:25:01.880Z,66.20
2019-05-16T20:27:33.430Z,66.40
2019-05-16T20:30:06.525Z,66.50
2019-05-16T20:32:37.332Z,67.00
2019-05-16T20:35:09.461Z,69.60
2019-05-16T20:37:40.916Z,70.90
2019-05-16T20:40:34.095Z,69.10
2019-05-16T20:43:03.884Z,69.80
2019-05-16T20:45:36.201Z,70.50
2019-05-16T20:48:12.074Z,73.10
2019-05-16T20:50:38.349Z,72.40
2019-05-16T20:53:09.885Z,73.50
2019-05-16T20:55:39.991Z,74.60
2019-05-16T20:58:10.966Z,75.50
2019-05-16T21:00:41.955Z,77.20
2019-05-16T21:03:11.793Z,75.70
2019-05-16T21:05:42.055Z,75.40
2019-05-16T21:08:11.856Z,74.80
2019-05-16T21:10:41.759Z,75.90
2019-05-16T21:13:11.966Z,76.20
2019-05-16T21:15:42.334Z,77.40
2019-05-16T21:18:12.262Z,78.20
2019-05-16T21:20:42.062Z,80.00
2019-05-16T21:23:11.919Z,81.00
2019-05-16T21:25:43.728Z,81.70
2019-05-16T21:28:13.519Z,82.60
2019-05-16T21:30:44.421Z,83.30
2019-05-16T21:33:16.508Z,82.90
2019-05-16T21:35:47.105Z,83.50
2019-05-16T21:38:17.151Z,85.10
2019-05-16T21:40:48.775Z,85.20
2019-05-16T21:43:18.569Z,85.50
2019-05-16T21:45:49.289Z,87.50
2019-05-16T21:48:19.450Z,87.80
2019-05-16T21:50:51.256Z,88.90
2019-05-16T21:53:22.599Z,89.20
2019-05-16T21:55:56.270Z,90.40
2019-05-16T21:58:29.534Z,90.70
2019-05-16T22:00:59.569Z,91.00
2019-05-16T22:03:29.385Z,91.30
2019-05-16T22:05:59.283Z,91.70
2019-05-16T22:08:29.545Z,91.80
2019-05-16T22:10:59.452Z,92.30
2019-05-16T22:13:29.251Z,92.30
2019-05-16T22:15:59.877Z,92.50
2019-05-16T22:18:29.708Z,92.50
2019-05-16T22:21:01.091Z,92.60
2019-05-16T22:23:31.826Z,93.00
2019-05-16T22:26:02.035Z,93.10
2019-05-16T22:28:32.056Z,93.30
2019-05-16T22:31:01.884Z,93.50
2019-05-16T22:33:33.785Z,94.20
2019-05-16T22:36:03.576Z,94.00
2019-05-16T22:38:34.665Z,94.40
2019-05-16T22:41:06.809Z,94.50
2019-05-16T22:43:37.135Z,94.40
2019-05-16T22:46:09.919Z,94.60
2019-05-16T22:48:38.695Z,94.80
2019-05-16T22:51:08.493Z,95.30
2019-05-16T22:53:39.568Z,95.60
2019-05-16T22:56:09.403Z,95.90
2019-05-16T22:58:40.793Z,96.00
2019-05-16T23:01:11.685Z,96.30
2019-05-16T23:03:41.679Z,96.40
2019-05-16T23:06:11.963Z,96.60
2019-05-16T23:08:41.971Z,96.90
2019-05-16T23:11:11.896Z,97.10
2019-05-16T23:13:42.247Z,97.20
2019-05-16T23:16:12.109Z,97.30
2019-05-16T23:18:41.940Z,97.50
2019-05-16T23:21:11.746Z,97.90
2019-05-16T23:23:41.759Z,98.00
2019-05-16T23:26:11.724Z,98.40
2019-05-16T23:28:41.713Z,98.50
2019-05-16T23:31:12.534Z,98.80
2019-05-16T23:33:43.364Z,99.00
2019-05-16T23:36:13.175Z,99.20
2019-05-16T23:38:44.322Z,99.30
2019-05-16T23:41:14.148Z,99.90
2019-05-16T23:43:43.940Z,99.90
2019-05-16T23:46:16.386Z,99.90
2019-05-16T23:48:47.237Z,99.90
2019-05-16T23:51:17.312Z,99.90
2019-05-16T23:53:47.114Z,99.90
2019-05-16T23:56:16.948Z,99.90
2019-05-16T23:58:47.675Z,99.90
